createdAt,value
2022-09-02T05:52:47.206Z,99966.22
2022-09-02T05:55:15.966Z,99956.56
2022-09-02T05:57:46.555Z,99962.59
2022-09-02T06:00:20.789Z,99961.44
2022-09-02T06:03:02.656Z,99968.13
2022-09-02T06:05:38.456Z,99972.59
2022-09-02T06:08:06.711Z,99966.31
2022-09-02T06:10:42.217Z,99972.22
2022-09-02T06:13:11.649Z,99971.03
2022-09-02T06:15:46.195Z,99962.44
2022-09-02T06:18:14.454Z,99974.03
2022-09-02T06:20:45.856Z,99970.72
2022-09-02T06:23:15.114Z,99971.72
2022-09-02T06:25:44.830Z,99977.91
2022-09-02T06:28:14.295Z,99978.37
2022-09-02T06:30:44.755Z,99976.88
2022-09-02T06:33:12.491Z,99982.75
2022-09-02T06:35:42.619Z,99977.87
2022-09-02T06:38:11.921Z,99974.38
2022-09-02T06:40:52.150Z,99973.69
2022-09-02T06:43:21.755Z,99972.63
2022-09-02T06:45:50.475Z,99986.59
2022-09-02T06:48:18.046Z,99977.97
2022-09-02T06:50:46.644Z,99975.16
2022-09-02T06:53:14.933Z,99977.00
2022-09-02T06:55:44.479Z,99980.72
2022-09-02T06:58:14.086Z,99975.44
2022-09-02T07:00:42.647Z,99981.41
2022-09-02T07:03:50.194Z,99974.44
2022-09-02T07:06:18.152Z,99979.66
2022-09-02T07:08:46.020Z,99978.03
2022-09-02T07:11:22.853Z,99981.69
2022-09-02T07:13:51.568Z,99978.06
2022-09-02T07:16:26.826Z,99977.25
2022-09-02T07:18:58.589Z,99963.91
2022-09-02T07:21:26.352Z,99975.09
2022-09-02T07:23:54.012Z,99969.13
2022-09-02T07:26:22.631Z,99972.59
2022-09-02T07:28:51.115Z,99977.19
2022-09-02T07:31:19.008Z,99976.41
2022-09-02T07:33:49.912Z,99976.41
2022-09-02T07:36:21.634Z,99975.50
2022-09-02T07:38:49.698Z,99977.94
2022-09-02T07:41:17.580Z,99979.06
2022-09-02T07:43:50.987Z,99982.56
2022-09-02T07:46:20.317Z,99980.84
2022-09-02T07:48:50.225Z,99979.84
2022-09-02T07:51:19.232Z,99972.00
2022-09-02T07:53:48.143Z,99982.62
2022-09-02T07:56:15.572Z,99972.91
2022-09-02T07:58:44.368Z,99971.13
2022-09-02T08:01:13.327Z,99975.44
2022-09-02T08:03:44.345Z,99967.59
2022-09-02T08:06:14.029Z,99969.34
2022-09-02T08:08:42.826Z,99979.09
2022-09-02T08:11:10.540Z,99979.94
2022-09-02T08:13:38.059Z,99975.19
2022-09-02T08:16:06.302Z,99983.13
2022-09-02T08:18:34.726Z,99981.41
2022-09-02T08:21:02.599Z,99980.19
2022-09-02T08:23:37.066Z,99976.88
2022-09-02T08:26:05.679Z,99974.97
2022-09-02T08:28:33.557Z,99977.69
2022-09-02T08:31:05.152Z,99975.59
2022-09-02T08:33:32.918Z,99970.84
2022-09-02T08:36:11.976Z,99971.69
2022-09-02T08:38:39.850Z,99974.09
2022-09-02T08:41:28.691Z,99965.44
2022-09-02T08:43:59.157Z,99968.69
2022-09-02T08:46:28.848Z,99973.88
2022-09-02T08:49:04.235Z,99963.59
2022-09-02T08:51:37.704Z,99962.84
2022-09-02T08:54:14.587Z,99965.00
2022-09-02T08:56:42.341Z,99965.56
2022-09-02T08:59:10.496Z,99967.31
2022-09-02T09:01:56.514Z,99965.53
2022-09-02T09:04:49.954Z,99966.28
2022-09-02T09:07:27.462Z,99973.75
2022-09-02T09:10:14.024Z,99968.88
2022-09-02T09:13:04.087Z,99960.88
2022-09-02T09:15:46.371Z,99961.63
2022-09-02T09:18:17.631Z,99953.19
2022-09-02T09:20:46.178Z,99962.78
2022-09-02T09:23:34.452Z,99962.34
2022-09-02T09:26:05.898Z,99964.31
2022-09-02T09:28:40.946Z,99956.63
2022-09-02T09:31:11.043Z,99950.47
2022-09-02T09:33:38.554Z,99957.56
2022-09-02T09:36:06.147Z,99953.78
2022-09-02T09:38:36.705Z,99948.50
2022-09-02T09:41:20.595Z,99940.84
2022-09-02T09:43:48.394Z,99942.56
2022-09-02T09:46:27.847Z,99944.16
2022-09-02T09:48:55.839Z,99937.97
2022-09-02T09:51:23.376Z,99930.53
2022-09-02T09:53:51.170Z,99925.44
2022-09-02T09:56:26.577Z,99931.53
2022-09-02T09:58:54.278Z,99938.13
2022-09-02T10:01:35.146Z,99929.91
2022-09-02T10:04:42.178Z,99929.34
2022-09-02T10:06:59.718Z,99936.56
2022-09-02T10:09:32.698Z,99929.25
2022-09-02T10:12:11.880Z,99925.25
2022-09-02T10:14:43.488Z,99927.88
2022-09-02T10:17:35.428Z,99934.56
2022-09-02T10:20:09.178Z,99927.16
2022-09-02T10:22:59.574Z,99931.06
2022-09-02T10:25:47.003Z,99926.06
2022-09-02T10:28:32.960Z,99928.03
2022-09-02T10:31:35.002Z,99932.72
2022-09-02T10:34:24.529Z,99930.28
2022-09-02T10:37:18.487Z,99934.06
2022-09-02T10:39:55.698Z,99925.87
2022-09-02T10:42:39.678Z,99934.22
2022-09-02T10:45:37.195Z,99931.87
2022-09-02T10:48:23.779Z,99926.91
2022-09-02T10:51:03.476Z,99927.69
2022-09-02T10:53:59.781Z,99929.25
2022-09-02T10:56:41.554Z,99929.41
2022-09-02T10:59:24.552Z,99931.22
2022-09-02T11:01:55.353Z,99931.16
2022-09-02T11:04:39.404Z,99928.41
2022-09-02T11:07:10.863Z,99938.41
2022-09-02T11:09:46.264Z,99932.78
2022-09-02T11:12:18.475Z,99929.19
2022-09-02T11:14:56.191Z,99938.53
2022-09-02T11:17:45.625Z,99929.97
2022-09-02T11:20:21.338Z,99921.31
2022-09-02T11:22:59.932Z,99922.56
2022-09-02T11:25:37.441Z,99923.97
2022-09-02T11:28:23.279Z,99912.06
2022-09-02T11:30:56.197Z,99910.16
2022-09-02T11:33:29.743Z,99912.84
2022-09-02T11:35:58.875Z,99908.00
2022-09-02T11:39:12.372Z,99898.69
2022-09-02T11:42:05.157Z,99904.25
2022-09-02T11:45:25.781Z,99897.72
2022-09-02T11:48:34.391Z,99899.28
2022-09-02T11:53:56.139Z,99893.34
2022-09-02T11:56:29.037Z,99882.44
2022-09-02T11:58:56.868Z,99889.53
2022-09-02T12:01:31.715Z,99882.75
2022-09-02T12:07:10.024Z,99884.88
2022-09-02T12:09:51.369Z,99891.50
2022-09-02T12:12:37.379Z,99887.16
2022-09-02T12:15:05.546Z,99885.91
2022-09-02T12:17:44.560Z,99884.56
2022-09-02T12:20:38.756Z,99879.75
2022-09-02T12:23:08.225Z,99887.31
2022-09-02T12:25:38.646Z,99877.56
2022-09-02T12:28:26.264Z,99883.38
2022-09-02T12:31:07.723Z,99868.72
2022-09-02T12:33:38.108Z,99879.13
2022-09-02T12:36:07.487Z,99876.16
2022-09-02T12:38:40.246Z,99863.69
2022-09-02T12:41:34.535Z,99868.62
2022-09-02T12:44:54.027Z,99869.47
2022-09-02T12:47:41.012Z,99872.94
2022-09-02T12:50:33.300Z,99868.56
2022-09-02T12:53:29.896Z,99861.28
2022-09-02T12:56:01.514Z,99862.19
2022-09-02T12:58:52.580Z,99867.03
2022-09-02T13:01:30.848Z,99861.72
2022-09-02T13:04:17.129Z,99854.09
2022-09-02T13:07:07.260Z,99849.97
2022-09-02T13:10:00.988Z,99849.44
2022-09-02T13:12:41.148Z,99853.31
2022-09-02T13:15:24.248Z,99852.28
2022-09-02T13:18:13.419Z,99855.06
2022-09-02T13:20:56.752Z,99850.66
2022-09-02T13:24:03.067Z,99846.25
2022-09-02T13:26:49.638Z,99843.53
2022-09-02T13:29:41.577Z,99842.91
2022-09-02T13:32:22.206Z,99842.66
2022-09-02T13:34:51.482Z,99849.13
2022-09-02T13:37:36.803Z,99845.53
2022-09-02T13:40:20.077Z,99845.34
2022-09-02T13:42:53.504Z,99840.16
2022-09-02T13:45:23.724Z,99838.28
2022-09-02T13:47:57.365Z,99840.22
2022-09-02T13:50:27.911Z,99830.06
2022-09-02T13:55:55.798Z,99834.78
2022-09-02T13:58:29.440Z,99821.09
2022-09-02T14:01:02.056Z,99827.88
2022-09-02T14:03:32.949Z,99830.50
2022-09-02T14:06:00.981Z,99822.47
2022-09-02T14:08:30.716Z,99833.34
2022-09-02T14:10:58.521Z,99828.72
2022-09-02T14:13:27.206Z,99837.12
2022-09-02T14:15:55.381Z,99831.94
2022-09-02T14:18:25.000Z,99837.56
2022-09-02T14:21:04.238Z,99825.22
2022-09-02T14:23:36.013Z,99838.34
2022-09-02T14:26:04.468Z,99836.59
2022-09-02T14:28:33.898Z,99833.47
2022-09-02T14:31:07.074Z,99829.75
2022-09-02T14:33:47.350Z,99836.59
2022-09-02T14:36:23.880Z,99841.53
2022-09-02T14:38:52.667Z,99843.47
2022-09-02T14:41:27.437Z,99843.97
2022-09-02T14:43:59.876Z,99845.41
2022-09-02T14:46:36.753Z,99839.13
2022-09-02T14:49:09.611Z,99841.25
2022-09-02T14:51:45.778Z,99843.72
2022-09-02T14:54:40.140Z,99840.78
2022-09-02T14:57:28.492Z,99852.03
2022-09-02T15:00:21.432Z,99844.53
2022-09-02T15:02:56.316Z,99847.44
2022-09-02T15:05:24.646Z,99838.78
2022-09-02T15:07:52.454Z,99848.53
2022-09-02T15:10:20.473Z,99853.94
2022-09-02T15:12:50.660Z,99847.66
2022-09-02T15:15:18.265Z,99839.59
2022-09-02T15:17:45.698Z,99846.75
2022-09-02T15:20:13.391Z,99843.09
2022-09-02T15:22:40.779Z,99839.38
2022-09-02T15:25:08.727Z,99834.06
2022-09-02T15:27:37.101Z,99837.34
2022-09-02T15:30:06.069Z,99837.28
2022-09-02T15:32:33.657Z,99841.47
2022-09-02T15:35:01.394Z,99845.16
2022-09-02T15:37:29.017Z,99845.38
2022-09-02T15:39:56.694Z,99847.78
2022-09-02T15:42:24.509Z,99840.06
2022-09-02T15:44:51.954Z,99854.16
2022-09-02T15:47:21.359Z,99856.16
2022-09-02T15:49:49.124Z,99862.84
2022-09-02T15:52:16.567Z,99862.03
2022-09-02T15:54:43.998Z,99864.66
2022-09-02T15:57:11.688Z,99865.38
2022-09-02T15:59:39.166Z,99874.22
2022-09-02T16:02:07.013Z,99875.31
2022-09-02T16:04:34.762Z,99872.81
2022-09-02T16:07:02.941Z,99882.84
2022-09-02T16:09:30.410Z,99880.94
2022-09-02T16:11:58.116Z,99884.81
2022-09-02T16:14:25.979Z,99885.13
2022-09-02T16:16:54.951Z,99885.19
2022-09-02T16:19:24.676Z,99881.00
2022-09-02T16:21:52.906Z,99890.69
2022-09-02T16:24:21.659Z,99889.09
2022-09-02T16:26:50.706Z,99885.75
2022-09-02T16:29:19.505Z,99891.09
2022-09-02T16:32:14.050Z,99893.81
2022-09-02T16:34:36.076Z,99898.28
2022-09-02T16:37:03.521Z,99912.59
2022-09-02T16:39:30.979Z,99907.47
2022-09-02T16:42:04.147Z,99911.81
2022-09-02T16:44:33.933Z,99913.59
2022-09-02T16:47:01.789Z,99909.16
2022-09-02T16:49:29.176Z,99913.59
2022-09-02T16:51:58.122Z,99910.09
2022-09-02T16:54:31.558Z,99908.31
2022-09-02T16:57:01.175Z,99916.34
2022-09-02T16:59:31.484Z,99919.13
2022-09-02T17:01:59.217Z,99907.50
2022-09-02T17:04:26.772Z,99920.75
2022-09-02T17:06:54.545Z,99918.97
2022-09-02T17:09:22.221Z,99920.88
2022-09-02T17:11:49.649Z,99928.78
2022-09-02T17:14:17.908Z,99934.22
2022-09-02T17:16:47.919Z,99918.25
2022-09-02T17:19:22.189Z,99932.34
2022-09-02T17:21:52.648Z,99920.13
2022-09-02T17:24:25.433Z,99921.00
2022-09-02T17:26:55.857Z,99927.16
2022-09-02T17:29:47.937Z,99925.37
2022-09-02T17:32:13.126Z,99930.69
2022-09-02T17:34:41.119Z,99920.97
2022-09-02T17:37:08.632Z,99935.94
2022-09-02T17:39:36.627Z,99928.94
2022-09-02T17:42:05.338Z,99935.09
2022-09-02T17:44:38.719Z,99927.16
2022-09-02T17:47:08.403Z,99932.44
2022-09-02T17:49:36.860Z,99932.44
2022-09-02T17:52:05.515Z,99937.75
2022-09-02T17:54:34.481Z,99934.19
2022-09-02T17:57:23.488Z,99936.81
2022-09-02T18:00:17.505Z,99944.75
2022-09-02T18:03:03.825Z,99944.72
2022-09-02T18:05:36.842Z,99944.75
2022-09-02T18:08:26.037Z,99942.97
2022-09-02T18:10:58.068Z,99943.75
2022-09-02T18:13:47.626Z,99941.09
2022-09-02T18:16:30.603Z,99941.16
2022-09-02T18:19:07.100Z,99948.19
2022-09-02T18:22:05.082Z,99949.97
2022-09-02T18:24:55.559Z,99949.84
2022-09-02T18:27:41.771Z,99952.59
2022-09-02T18:30:13.794Z,99955.25
2022-09-02T18:33:20.253Z,99959.62
2022-09-02T18:36:28.747Z,99960.53
2022-09-02T18:39:21.278Z,99957.00
2022-09-02T18:42:01.271Z,99966.53
2022-09-02T18:44:40.192Z,99974.28
2022-09-02T18:47:32.684Z,99970.84
2022-09-02T18:50:04.677Z,99975.66
2022-09-02T18:52:32.677Z,99977.16
2022-09-02T18:55:00.005Z,99973.62
2022-09-02T18:57:33.536Z,99971.06
2022-09-02T19:00:10.918Z,99970.47
2022-09-02T19:02:51.488Z,99967.25
2022-09-02T19:05:22.368Z,99963.75
2022-09-02T19:08:19.117Z,99976.06
2022-09-02T19:10:47.049Z,99969.13
2022-09-02T19:13:15.250Z,99976.19
2022-09-02T19:15:42.904Z,99979.69
2022-09-02T19:18:11.904Z,99979.44
2022-09-02T19:20:39.726Z,99983.03
2022-09-02T19:23:08.294Z,99977.75
2022-09-02T19:25:41.686Z,99984.91
2022-09-02T19:28:10.202Z,99983.91
2022-09-02T19:30:40.454Z,99988.41
2022-09-02T19:33:09.763Z,99978.63
2022-09-02T19:35:38.412Z,99983.91
2022-09-02T19:38:06.600Z,99984.72
2022-09-02T19:40:34.134Z,99989.09
2022-09-02T19:43:05.793Z,99983.00
2022-09-02T19:45:37.722Z,99991.78
2022-09-02T19:48:17.006Z,99983.88
2022-09-02T19:50:46.544Z,99984.66
2022-09-02T19:53:27.975Z,99987.31
2022-09-02T19:56:06.766Z,99994.84
2022-09-02T19:58:35.615Z,99985.41
2022-09-02T20:01:05.455Z,99985.44
2022-09-02T20:03:34.080Z,99983.59
2022-09-02T20:06:01.566Z,99988.91
2022-09-02T20:08:31.076Z,99993.19
2022-09-02T20:11:01.474Z,99983.66
2022-09-02T20:13:30.136Z,99986.16
2022-09-02T20:15:57.612Z,99982.59
2022-09-02T20:18:26.926Z,99983.28
2022-09-02T20:20:57.478Z,99990.12
2022-09-02T20:23:26.722Z,99995.69
2022-09-02T20:26:12.613Z,99999.34
2022-09-02T20:29:02.808Z,100003.94
2022-09-02T20:31:39.362Z,100006.03
2022-09-02T20:34:36.779Z,100000.13
2022-09-02T20:37:16.147Z,100005.12
2022-09-02T20:40:12.199Z,100006.25
2022-09-02T20:42:58.523Z,100001.09
2022-09-02T20:45:38.649Z,99999.19
2022-09-02T20:48:19.428Z,100005.69
2022-09-02T20:51:01.778Z,100010.03
2022-09-02T20:53:32.355Z,100007.78
2022-09-02T20:56:18.915Z,100014.72
2022-09-02T20:59:01.326Z,100019.31
2022-09-02T21:01:35.740Z,100019.84
2022-09-02T21:04:24.556Z,100019.19
2022-09-02T21:06:57.856Z,100015.09
2022-09-02T21:09:42.972Z,100014.66
2022-09-02T21:12:19.612Z,100020.75
2022-09-02T21:14:49.157Z,100017.38
2022-09-02T21:17:21.614Z,100020.56
2022-09-02T21:19:55.175Z,100008.16
2022-09-02T21:22:30.896Z,100017.44
2022-09-02T21:25:25.839Z,100018.25
2022-09-02T21:28:09.683Z,100023.44
2022-09-02T21:30:40.408Z,100017.19
2022-09-02T21:33:14.157Z,100021.28
2022-09-02T21:35:48.014Z,100016.81
2022-09-02T21:38:20.882Z,100022.22
2022-09-02T21:40:54.380Z,100031.75
2022-09-02T21:43:34.851Z,100025.38
2022-09-02T21:46:40.594Z,100025.47
2022-09-02T21:49:33.836Z,100018.25
2022-09-02T21:52:30.602Z,100017.34
2022-09-02T21:55:07.002Z,100017.75
2022-09-02T21:57:53.816Z,100018.84
2022-09-02T22:00:23.314Z,100025.94
2022-09-02T22:03:03.902Z,100026.59
2022-09-02T22:05:50.345Z,100028.69
2022-09-02T22:08:29.743Z,100023.16
2022-09-02T22:11:14.083Z,100027.84
2022-09-02T22:13:42.245Z,100021.13
2022-09-02T22:16:31.066Z,100020.31
2022-09-02T22:19:02.269Z,100019.50
2022-09-02T22:21:38.160Z,100019.75
2022-09-02T22:24:06.839Z,100029.12
2022-09-02T22:26:39.606Z,100019.38
2022-09-02T22:29:17.784Z,100020.78
2022-09-02T22:31:45.879Z,100016.97
2022-09-02T22:34:16.151Z,100024.25
2022-09-02T22:37:07.943Z,100024.44
2022-09-02T22:39:39.891Z,100023.09
2022-09-02T22:42:21.384Z,100017.53
2022-09-02T22:45:18.554Z,100012.12
2022-09-02T22:48:08.998Z,100011.69
2022-09-02T22:50:58.361Z,100009.63
2022-09-02T22:53:28.845Z,100010.94
2022-09-02T22:55:59.398Z,100008.19
2022-09-02T22:59:11.039Z,100012.06
2022-09-02T23:01:45.243Z,100008.78
2022-09-02T23:04:21.608Z,100000.94
2022-09-02T23:06:52.551Z,99994.00
2022-09-02T23:09:20.195Z,99995.72
2022-09-02T23:11:53.361Z,99997.28
2022-09-02T23:14:44.564Z,99993.53
2022-09-02T23:17:33.642Z,100004.78
2022-09-02T23:20:12.680Z,99997.59
2022-09-02T23:22:49.489Z,99999.75
2022-09-02T23:25:40.956Z,99996.31
2022-09-02T23:28:16.775Z,99991.41
2022-09-02T23:31:19.597Z,99993.81
2022-09-02T23:33:51.316Z,99988.41
2022-09-02T23:36:35.121Z,99982.75
2022-09-02T23:39:18.834Z,99992.50
2022-09-02T23:41:47.867Z,99997.66
2022-09-02T23:44:16.557Z,99992.75
2022-09-02T23:46:56.446Z,99991.63
2022-09-02T23:49:49.241Z,99986.81
2022-09-02T23:52:56.311Z,99983.13
2022-09-02T23:55:38.277Z,99983.56
2022-09-02T23:58:33.753Z,99977.75
